KFTW/FTW METAR and TAF weather

Enter ICAO airport designator
Station Type Date Time Source
KFTW METAR 2020/12/01 20:53 UTC NOAA

KFTW 012053Z 15018G24KT 10SM CLR 14/M05 A2997 RMK AO2 PK WND 16029/2030 SLP150 T01391050 56036


Station Type Date Time Source
KFTW Decoded METAR 2020/12/01 20:53 UTC NOAA

FORT WORTH MEACHAM INTERNATIONAL ., TX, United States (KFTW) 32-50N 097-22W 214M
Dec 01, 2020 - 03:53 PM EST / 2020.12.01 2053 UTC
Wind: from the SSE (150 degrees) at 21 MPH (18 KT) gusting to 28 MPH (24 KT):0
Visibility: 10 mile(s):0
Sky conditions: clear
Temperature: 57.0 F (13.9 C)
Dew Point: 23.0 F (-5.0 C)
Relative Humidity: 26%
Pressure (altimeter): 29.97 in. Hg (1014 hPa)
Pressure tendency: 0.11 inches (3.6 hPa) lower than three hours ago
ob: KFTW 012053Z 15018G24KT 10SM CLR 14/M05 A2997 RMK AO2 PK WND 16029/2030 SLP150 T01391050 56036
cycle: 21

Station Type Date Time Source
KFTW TAF 2020/12/01 21:59 UTC NOAA

TAF
AMD KFTW 012059Z 0121/0218 17018G28KT P6SM BKN250
FM020100 15011KT P6SM SCT250
FM021000 14008KT P6SM BKN035
FM021200 24009KT 6SM BR VCSH BKN015

Example: see airport list